createdAt,value
2023-04-22T00:03:32.907Z,16.80
2023-04-22T00:13:56.991Z,16.60
2023-04-22T00:24:18.952Z,16.50
2023-04-22T00:34:43.176Z,16.30
2023-04-22T00:45:12.045Z,16.10
2023-04-22T00:55:35.635Z,15.90
2023-04-22T01:05:59.308Z,15.80
2023-04-22T01:16:23.871Z,15.60
2023-04-22T01:26:47.692Z,15.50
2023-04-22T01:37:10.586Z,15.40
2023-04-22T01:47:35.477Z,15.20
2023-04-22T01:58:01.091Z,14.90
2023-04-22T02:08:25.855Z,14.90
2023-04-22T02:18:47.119Z,14.80
2023-04-22T02:29:10.285Z,14.70
2023-04-22T02:39:31.581Z,14.70
2023-04-22T02:49:54.842Z,14.40
2023-04-22T03:00:16.671Z,14.30
2023-04-22T03:10:39.552Z,14.10
2023-04-22T03:21:01.951Z,14.00
2023-04-22T03:31:25.189Z,14.10
2023-04-22T03:41:52.710Z,13.90
2023-04-22T03:52:17.342Z,13.90
2023-04-22T04:02:47.052Z,13.90
2023-04-22T04:13:13.942Z,14.00
2023-04-22T04:23:50.987Z,14.20
2023-04-22T04:34:17.855Z,14.40
2023-04-22T04:44:44.642Z,14.30
2023-04-22T04:55:08.603Z,14.50
2023-04-22T05:05:30.940Z,15.10
2023-04-22T05:15:54.461Z,15.70
2023-04-22T05:26:19.065Z,15.90
2023-04-22T05:36:45.885Z,16.50
2023-04-22T05:47:09.922Z,17.30
2023-04-22T05:57:33.065Z,18.10
2023-04-22T06:07:59.186Z,18.10
2023-04-22T06:18:22.260Z,18.60
2023-04-22T06:28:44.006Z,19.10
2023-04-22T06:39:13.249Z,19.10
2023-04-22T06:49:54.188Z,19.70
2023-04-22T07:00:22.499Z,20.00
2023-04-22T07:10:45.204Z,20.90
2023-04-22T07:21:22.927Z,21.70
2023-04-22T07:31:45.295Z,21.70
2023-04-22T07:42:08.288Z,22.20
2023-04-22T07:52:30.607Z,23.10
2023-04-22T08:02:54.853Z,23.80
2023-04-22T08:13:18.201Z,24.10
2023-04-22T08:23:41.337Z,23.80
2023-04-22T08:34:02.703Z,24.20
2023-04-22T08:44:25.684Z,25.10
2023-04-22T08:54:47.056Z,25.30
2023-04-22T09:05:11.585Z,26.50
2023-04-22T09:15:34.621Z,26.10
2023-04-22T09:26:02.576Z,26.20
2023-04-22T09:36:24.792Z,26.60
2023-04-22T09:46:50.944Z,26.90
2023-04-22T09:57:15.245Z,28.10
2023-04-22T10:07:40.185Z,27.60
2023-04-22T10:18:04.095Z,27.90
2023-04-22T10:28:30.113Z,28.70
2023-04-22T10:39:17.820Z,28.30
2023-04-22T10:49:41.156Z,28.20
2023-04-22T11:00:52.231Z,28.80
2023-04-22T11:11:18.593Z,28.40
2023-04-22T11:21:40.570Z,29.00
2023-04-22T11:32:04.570Z,28.90
2023-04-22T11:42:27.663Z,28.50
2023-04-22T11:52:53.108Z,29.10
2023-04-22T12:03:16.413Z,30.10
2023-04-22T12:13:45.583Z,29.70
2023-04-22T12:24:10.473Z,28.40
2023-04-22T12:34:33.307Z,29.70
2023-04-22T12:44:54.957Z,29.00
2023-04-22T12:55:17.927Z,29.50
2023-04-22T13:05:39.841Z,29.80
2023-04-22T13:16:03.189Z,29.60
2023-04-22T13:26:24.872Z,29.30
2023-04-22T13:36:48.191Z,30.30
2023-04-22T13:47:09.603Z,30.70
2023-04-22T13:57:33.868Z,29.80
2023-04-22T14:07:55.913Z,29.60
2023-04-22T14:18:18.827Z,29.20
2023-04-22T14:28:42.097Z,29.70
2023-04-22T14:39:07.221Z,29.90
2023-04-22T14:49:28.669Z,31.00
2023-04-22T14:59:51.518Z,30.10
2023-04-22T15:10:14.270Z,30.10
2023-04-22T15:20:37.553Z,29.60
2023-04-22T15:30:59.149Z,29.70
2023-04-22T15:41:22.032Z,29.20
2023-04-22T15:51:43.379Z,29.20
2023-04-22T16:02:07.296Z,29.50
2023-04-22T16:12:30.468Z,29.00
2023-04-22T16:22:54.159Z,28.50
2023-04-22T16:33:16.464Z,28.70
2023-04-22T16:43:41.407Z,28.40
2023-04-22T16:54:03.369Z,27.90
2023-04-22T17:04:26.403Z,27.70
2023-04-22T17:14:49.010Z,27.20
2023-04-22T17:25:12.287Z,26.70
2023-04-22T17:35:33.654Z,25.80
2023-04-22T17:45:56.847Z,25.20
2023-04-22T17:56:18.910Z,24.80
2023-04-22T18:06:42.188Z,24.20
2023-04-22T18:17:04.359Z,23.80
2023-04-22T18:27:27.351Z,23.30
2023-04-22T18:37:49.060Z,23.30
2023-04-22T18:48:11.875Z,22.90
2023-04-22T18:58:33.534Z,22.70
2023-04-22T19:08:57.363Z,22.10
2023-04-22T19:19:19.041Z,21.60
2023-04-22T19:29:42.479Z,21.80
2023-04-22T19:40:06.922Z,21.80
2023-04-22T19:50:30.427Z,21.70
2023-04-22T20:00:52.838Z,21.60
2023-04-22T20:11:18.815Z,21.50
2023-04-22T20:21:41.017Z,21.40
2023-04-22T20:32:05.069Z,21.20
2023-04-22T20:42:26.712Z,21.10
2023-04-22T20:52:49.799Z,20.90
2023-04-22T21:03:11.488Z,20.80
2023-04-22T21:13:35.153Z,20.60
2023-04-22T21:23:56.785Z,20.30
2023-04-22T21:34:20.870Z,20.20
2023-04-22T21:44:49.350Z,20.20
2023-04-22T21:55:12.554Z,20.10
2023-04-22T22:05:34.023Z,20.20
2023-04-22T22:15:57.434Z,20.20
2023-04-22T22:26:20.294Z,20.20
2023-04-22T22:36:43.383Z,20.10
2023-04-22T22:47:05.979Z,20.00
2023-04-22T22:57:28.709Z,19.80
2023-04-22T23:07:50.319Z,19.70
2023-04-22T23:18:16.980Z,19.40
2023-04-22T23:28:38.873Z,19.20
2023-04-22T23:39:01.874Z,19.20
2023-04-22T23:49:23.392Z,19.30
2023-04-22T23:59:46.896Z,19.00
